Depok
Home > Kaskuser Regional > INDONESIA > JABAR, DKI & BANTEN > Depok > ▓▓▒▒ Radar Cuaca JABODETABEK dan Sekitarnya™ ▒▒▓▓
Total Views: 4268 Share : Facebook ShareFacebook Twitter ShareTwitter Google+ ShareGoogle+
Page 8 of 21 | ‹ First  < 3 4 5 6 7 8 9 10 11 12 13 >  Last ›

dianabazz - 25/04/2012 12:47 PM
#141

T A F O R



TAF WIII 242300Z 2500/2606 19005KT 4000 BR FEW020 BECMG 2502/2504 05010KT 9999 SCT022 BECMG 2510/2512 20005KT 4000 BR FEW020=



Bingung cara bacanya???bingungs
klik aja Cara membaca TAFOR
atau menggunakan decoder diSINI
tapi jangan lupa untuk membuang "TAF" di awal dan "=" di akhir
dianabazz - 25/04/2012 12:58 PM
#142

▓▓▒▒ Radar Cuaca JABODETABEK dan Sekitarnya™ ▒▒▓▓
ikhsanlie - 25/04/2012 09:09 PM
#143

Hadehhhh citayam-depok sekarang hujan gede bgt gan, angin juga agak sedikit kencang,tp mbah geluduk gak ada gan D......jakarta waspada banjir kiriman dr depok & bogor yah besok D
dianabazz - 26/04/2012 08:19 AM
#144

T A F O R



TAF WIII 252300Z 2600/2706 05010KT 9000 FEW018CB SCT020 BECMG 2610/2612 20005KT 6000 SCT020=



Bingung cara bacanya???bingungs
klik aja Cara membaca TAFOR
atau menggunakan decoder diSINI
tapi jangan lupa untuk membuang "TAF" di awal dan "=" di akhir
dianabazz - 26/04/2012 08:20 AM
#145

▓▓▒▒ Radar Cuaca JABODETABEK dan Sekitarnya™ ▒▒▓▓
dianabazz - 27/04/2012 11:13 PM
#146

T A F O R



TAF WIII 271100Z 2712/2818 06005KT 7000 SCT020 BECMG 2720/2722 00000KT 4000 BR BECMG 2800/2802 22005KT 5000 HZ BECMG 2804/2806 02010KT 8000=



Bingung cara bacanya???bingungs
klik aja Cara membaca TAFOR
atau menggunakan decoder diSINI
tapi jangan lupa untuk membuang "TAF" di awal dan "=" di akhir
dianabazz - 27/04/2012 11:14 PM
#147

▓▓▒▒ Radar Cuaca JABODETABEK dan Sekitarnya™ ▒▒▓▓
dianabazz - 29/04/2012 02:05 PM
#148

T A F O R



TAF WIII 290500Z 2906/3012 36008KT 8000 SCT022 TEMPO 2906/2910 4000 TSRA FEW018CB BKN020 BECMG 2912/2914 25004KT 6000 BECMG 2917/2919 18003KT 3000 BR FEW020CB PROB30 TEMPO 2921/2924 -RA BECMG 3000/3002 VRB02KT 8000 SCT020 BECMG 3004/3006 35010KT FEW022CB PROB40 TEMPO 3007/3012 01008G18KT 4000 TSRA FEW018CB BKN020=



Bingung cara bacanya???bingungs
klik aja Cara membaca TAFOR
atau menggunakan decoder diSINI
tapi jangan lupa untuk membuang "TAF" di awal dan "=" di akhir
dianabazz - 29/04/2012 02:08 PM
#149

▓▓▒▒ Radar Cuaca JABODETABEK dan Sekitarnya™ ▒▒▓▓
dianabazz - 29/04/2012 02:11 PM
#150

▓▓▒▒ Radar Cuaca JABODETABEK dan Sekitarnya™ ▒▒▓▓
dianabazz - 30/04/2012 08:18 AM
#151

T A F O R



TAF WIII 292300Z 3000/0106 VRB02KT 8000 SCT022 BECMG 3002/3004 01010KT FEW022CB PROB40 TEMPO 3006/3011 5000 TSRA FEW018CB BKN020 BECMG 3013/3015 26004KT 6000 BECMG 3018/3020 18003KT 3000 BR FEW022 BECMG 0100/0102 VRB02KT 7000 SCT020 BECMG 0103/0105 35010KT=



Bingung cara bacanya???bingungs
klik aja Cara membaca TAFOR
atau menggunakan decoder diSINI
tapi jangan lupa untuk membuang "TAF" di awal dan "=" di akhir
dianabazz - 30/04/2012 08:21 AM
#152

▓▓▒▒ Radar Cuaca JABODETABEK dan Sekitarnya™ ▒▒▓▓
dianabazz - 01/05/2012 08:26 AM
#153

T A F O R



TAF WIII 302300Z 0100/0206 22005KT 4000 BR SCT020 BECMG 0101/0103 26005KT 5000 RA BKN018 BECMG 0103/0105 14005KT PROB30 TEMPO 0108/0110 5000 RA FEW018CB BKN018 BECMG 0109/0111 22005KT 6000 SCT020 TEMPO 0116/0123 5000 HZ BECMG 0123/0124 26008KT 8000 SCT020=



Bingung cara bacanya???bingungs
klik aja Cara membaca TAFOR
atau menggunakan decoder diSINI
tapi jangan lupa untuk membuang "TAF" di awal dan "=" di akhir
dianabazz - 01/05/2012 08:27 AM
#154

▓▓▒▒ Radar Cuaca JABODETABEK dan Sekitarnya™ ▒▒▓▓
dianabazz - 04/05/2012 03:02 PM
#155

▓▓▒▒ Radar Cuaca JABODETABEK dan Sekitarnya™ ▒▒▓▓
dianabazz - 04/05/2012 03:04 PM
#156

▓▓▒▒ Radar Cuaca JABODETABEK dan Sekitarnya™ ▒▒▓▓
dianabazz - 05/05/2012 08:46 AM
#157

▓▓▒▒ Radar Cuaca JABODETABEK dan Sekitarnya™ ▒▒▓▓
dianabazz - 06/05/2012 06:31 PM
#158

T A F O R



TAF WIII 060500Z 0606/0712 03010KT 8000 SCT022 TEMPO 0607/0612 4000 TSRA FEW018CB BKN020 BECMG 0613/0615 25004KT 6000 BECMG 0618/0620 18003KT 3000 BR FEW020 BECMG 0700/0702 VRB02KT 8000 BECMG 0704/0706 03010KT FEW022CB SCT022 PROB40 TEMPO 0707/0712 4000 TSRA FEW018CB BKN020=



Bingung cara bacanya???bingungs
klik aja Cara membaca TAFOR
atau menggunakan decoder diSINI
tapi jangan lupa untuk membuang "TAF" di awal dan "=" di akhir
dianabazz - 06/05/2012 06:33 PM
#159

▓▓▒▒ Radar Cuaca JABODETABEK dan Sekitarnya™ ▒▒▓▓
dianabazz - 08/05/2012 12:05 AM
#160

T A F O R



TAF WIII 071100Z 0712/0818 04005KT 7000 FEW020CB SCT020 PROB30 TEMPO 0713/0717 5000 TSRA FEW018CB BKN018 BECMG 0715/0717 23005KT 5000 BECMG 0800/0802 VRB05KT 4000 RA FEW020CB BKN020 BECMG 0805/0807 05005KT 7000 FEW020CB SCT020 PROB30 TEMPO 0813/0817 5000 TSRA FEW018CB BKN018 BECMG 0715/0717 23005KT 5000=



Bingung cara bacanya???bingungs
klik aja Cara membaca TAFOR
atau menggunakan decoder diSINI
tapi jangan lupa untuk membuang "TAF" di awal dan "=" di akhir[
Page 8 of 21 | ‹ First  < 3 4 5 6 7 8 9 10 11 12 13 >  Last ›
Home > Kaskuser Regional > INDONESIA > JABAR, DKI & BANTEN > Depok > ▓▓▒▒ Radar Cuaca JABODETABEK dan Sekitarnya™ ▒▒▓▓